Main page
Satellite images 15-day forecastsClimateMarine weather Cyclones Lightning AirportsFAQ Newsletter About
Weather : Europe Africa North America South America Asia Australia-Oceania Others
Languages Contact

Alpine, Texas, United States

Alpine-Casparis Municipal Airport

latitude: 30-23-03N, longitude: 103-41-00W, elevation: 1376 m


METAR: KE38 210455Z AUTO 14003KT 7SM SCT019 SCT065 BKN085 15/13 A3017 RMK AO2 T01530132
TAF: missing

Time: 00:17 (05:17 UTC)

Current weather observation

The report was made 22 minutes ago, at 04:55 UTC  
Wind 03 kt from the Southeast
Temperature 15°C
Humidity 88%
Pressure 1022 hPa
Visibility 11.3 km
Scattered clouds at a height of 1900 ft
Scattered clouds at a height of 6500 ft
Broken clouds at a height of 8500 ft

Change units
The information on this site is subject to a disclaimer
Weather : Europe Africa North America South America Asia Australia-Oceania Others
Satellite images 15-day forecastsClimateMarine weather Cyclones Lightning AirportsFAQ Languages Contact Newsletter About